sensor_id;sensor_type;location;lat;lon;timestamp;temperature;humidity
40085;DHT22;25786;51.504;7.344;2023-08-06T00:00:50;16.30;91.30
40085;DHT22;25786;51.504;7.344;2023-08-06T00:03:16;16.40;91.30
40085;DHT22;25786;51.504;7.344;2023-08-06T00:05:42;16.30;90.90
40085;DHT22;25786;51.504;7.344;2023-08-06T00:08:08;16.30;91.10
40085;DHT22;25786;51.504;7.344;2023-08-06T00:10:33;16.30;91.10
40085;DHT22;25786;51.504;7.344;2023-08-06T00:12:59;16.20;91.10
40085;DHT22;25786;51.504;7.344;2023-08-06T00:15:24;16.30;91.50
40085;DHT22;25786;51.504;7.344;2023-08-06T00:17:49;16.30;91.40
40085;DHT22;25786;51.504;7.344;2023-08-06T00:20:15;16.40;91.30
40085;DHT22;25786;51.504;7.344;2023-08-06T00:22:40;16.40;91.20
40085;DHT22;25786;51.504;7.344;2023-08-06T00:25:06;16.40;91.10
40085;DHT22;25786;51.504;7.344;2023-08-06T00:27:32;16.40;91.00
40085;DHT22;25786;51.504;7.344;2023-08-06T00:30:00;16.30;91.00
40085;DHT22;25786;51.504;7.344;2023-08-06T00:32:25;16.30;91.00
40085;DHT22;25786;51.504;7.344;2023-08-06T00:34:51;16.30;91.10
40085;DHT22;25786;51.504;7.344;2023-08-06T00:37:19;16.20;91.00
40085;DHT22;25786;51.504;7.344;2023-08-06T00:39:45;16.30;91.10
40085;DHT22;25786;51.504;7.344;2023-08-06T00:42:11;16.30;91.10
40085;DHT22;25786;51.504;7.344;2023-08-06T00:44:37;16.30;90.80
40085;DHT22;25786;51.504;7.344;2023-08-06T00:47:11;16.30;91.20
40085;DHT22;25786;51.504;7.344;2023-08-06T00:49:36;16.30;91.40
40085;DHT22;25786;51.504;7.344;2023-08-06T00:52:02;16.30;91.50
40085;DHT22;25786;51.504;7.344;2023-08-06T00:54:28;16.30;91.20
40085;DHT22;25786;51.504;7.344;2023-08-06T00:56:54;16.20;91.30
40085;DHT22;25786;51.504;7.344;2023-08-06T00:59:20;16.30;90.90
40085;DHT22;25786;51.504;7.344;2023-08-06T01:01:45;16.30;90.40
40085;DHT22;25786;51.504;7.344;2023-08-06T01:04:11;16.20;90.70
40085;DHT22;25786;51.504;7.344;2023-08-06T01:09:27;16.30;90.50
40085;DHT22;25786;51.504;7.344;2023-08-06T01:12:14;16.30;90.70
40085;DHT22;25786;51.504;7.344;2023-08-06T01:17:12;16.20;90.90
40085;DHT22;25786;51.504;7.344;2023-08-06T01:19:40;16.20;90.90
40085;DHT22;25786;51.504;7.344;2023-08-06T01:22:06;16.10;90.70
40085;DHT22;25786;51.504;7.344;2023-08-06T01:24:34;16.00;90.20
40085;DHT22;25786;51.504;7.344;2023-08-06T01:29:56;16.10;90.60
40085;DHT22;25786;51.504;7.344;2023-08-06T01:32:33;16.10;90.50
40085;DHT22;25786;51.504;7.344;2023-08-06T01:35:40;16.20;90.50
40085;DHT22;25786;51.504;7.344;2023-08-06T01:38:08;16.30;90.60
40085;DHT22;25786;51.504;7.344;2023-08-06T01:43:24;16.20;90.80
40085;DHT22;25786;51.504;7.344;2023-08-06T01:45:55;16.10;90.80
40085;DHT22;25786;51.504;7.344;2023-08-06T01:48:23;16.20;90.80
40085;DHT22;25786;51.504;7.344;2023-08-06T01:50:51;16.30;90.60
40085;DHT22;25786;51.504;7.344;2023-08-06T01:53:29;16.20;90.50
40085;DHT22;25786;51.504;7.344;2023-08-06T01:55:55;16.10;90.10
40085;DHT22;25786;51.504;7.344;2023-08-06T01:58:29;16.10;90.30
40085;DHT22;25786;51.504;7.344;2023-08-06T02:01:01;16.10;90.50
40085;DHT22;25786;51.504;7.344;2023-08-06T02:03:29;16.10;90.90
40085;DHT22;25786;51.504;7.344;2023-08-06T02:06:03;16.10;91.00
40085;DHT22;25786;51.504;7.344;2023-08-06T02:08:32;16.20;90.80
40085;DHT22;25786;51.504;7.344;2023-08-06T02:10:57;16.20;90.90
40085;DHT22;25786;51.504;7.344;2023-08-06T02:13:23;16.20;91.20
40085;DHT22;25786;51.504;7.344;2023-08-06T02:16:02;16.30;91.10
40085;DHT22;25786;51.504;7.344;2023-08-06T02:18:38;16.30;90.80
40085;DHT22;25786;51.504;7.344;2023-08-06T02:21:22;16.30;90.90
40085;DHT22;25786;51.504;7.344;2023-08-06T02:23:47;16.30;90.80
40085;DHT22;25786;51.504;7.344;2023-08-06T02:26:16;16.20;90.80
40085;DHT22;25786;51.504;7.344;2023-08-06T02:28:51;16.20;90.80
40085;DHT22;25786;51.504;7.344;2023-08-06T02:31:24;16.10;91.10
40085;DHT22;25786;51.504;7.344;2023-08-06T02:33:55;16.10;91.10
40085;DHT22;25786;51.504;7.344;2023-08-06T02:39:28;16.10;91.10
40085;DHT22;25786;51.504;7.344;2023-08-06T02:41:54;16.20;91.10
40085;DHT22;25786;51.504;7.344;2023-08-06T02:44:22;16.10;91.00
40085;DHT22;25786;51.504;7.344;2023-08-06T02:47:03;16.10;91.10
40085;DHT22;25786;51.504;7.344;2023-08-06T02:49:32;16.10;91.10
40085;DHT22;25786;51.504;7.344;2023-08-06T02:52:05;16.10;91.10
40085;DHT22;25786;51.504;7.344;2023-08-06T02:54:34;16.10;91.10
40085;DHT22;25786;51.504;7.344;2023-08-06T02:57:13;16.10;91.10
40085;DHT22;25786;51.504;7.344;2023-08-06T02:59:39;16.10;91.00
40085;DHT22;25786;51.504;7.344;2023-08-06T03:02:04;16.10;90.70
40085;DHT22;25786;51.504;7.344;2023-08-06T03:04:30;16.00;90.70
40085;DHT22;25786;51.504;7.344;2023-08-06T03:07:05;16.00;90.60
40085;DHT22;25786;51.504;7.344;2023-08-06T03:09:45;15.90;90.70
40085;DHT22;25786;51.504;7.344;2023-08-06T03:12:41;15.90;90.70
40085;DHT22;25786;51.504;7.344;2023-08-06T03:18:25;15.70;90.90
40085;DHT22;25786;51.504;7.344;2023-08-06T03:20:59;15.70;91.10
40085;DHT22;25786;51.504;7.344;2023-08-06T03:23:25;15.60;91.20
40085;DHT22;25786;51.504;7.344;2023-08-06T03:25:50;15.60;91.30
40085;DHT22;25786;51.504;7.344;2023-08-06T03:28:16;15.50;91.30
40085;DHT22;25786;51.504;7.344;2023-08-06T03:30:42;15.50;91.30
40085;DHT22;25786;51.504;7.344;2023-08-06T03:33:10;15.40;91.20
40085;DHT22;25786;51.504;7.344;2023-08-06T03:35:36;15.40;91.30
40085;DHT22;25786;51.504;7.344;2023-08-06T03:38:01;15.40;91.40
40085;DHT22;25786;51.504;7.344;2023-08-06T03:40:27;15.50;91.50
40085;DHT22;25786;51.504;7.344;2023-08-06T03:42:58;15.40;91.50
40085;DHT22;25786;51.504;7.344;2023-08-06T03:45:24;15.50;91.70
40085;DHT22;25786;51.504;7.344;2023-08-06T03:47:49;15.40;91.70
40085;DHT22;25786;51.504;7.344;2023-08-06T03:50:15;15.50;91.60
40085;DHT22;25786;51.504;7.344;2023-08-06T03:52:41;15.50;91.50
40085;DHT22;25786;51.504;7.344;2023-08-06T03:55:06;15.50;91.40
40085;DHT22;25786;51.504;7.344;2023-08-06T03:57:32;15.60;91.40
40085;DHT22;25786;51.504;7.344;2023-08-06T04:00:00;15.60;91.40
40085;DHT22;25786;51.504;7.344;2023-08-06T04:02:26;15.60;91.30
40085;DHT22;25786;51.504;7.344;2023-08-06T04:04:52;15.40;91.20
40085;DHT22;25786;51.504;7.344;2023-08-06T04:07:19;15.50;91.40
40085;DHT22;25786;51.504;7.344;2023-08-06T04:09:51;15.40;91.50
40085;DHT22;25786;51.504;7.344;2023-08-06T04:12:17;15.40;91.50
40085;DHT22;25786;51.504;7.344;2023-08-06T04:14:42;15.30;91.60
40085;DHT22;25786;51.504;7.344;2023-08-06T04:17:08;15.30;91.50
40085;DHT22;25786;51.504;7.344;2023-08-06T04:19:33;15.30;91.40
40085;DHT22;25786;51.504;7.344;2023-08-06T04:21:58;15.40;91.20
40085;DHT22;25786;51.504;7.344;2023-08-06T04:24:24;15.30;91.20
40085;DHT22;25786;51.504;7.344;2023-08-06T04:26:49;15.20;91.30
40085;DHT22;25786;51.504;7.344;2023-08-06T04:29:15;15.20;91.40
40085;DHT22;25786;51.504;7.344;2023-08-06T04:31:40;15.20;91.30
40085;DHT22;25786;51.504;7.344;2023-08-06T04:34:06;15.20;91.30
40085;DHT22;25786;51.504;7.344;2023-08-06T04:36:33;15.30;91.10
40085;DHT22;25786;51.504;7.344;2023-08-06T04:38:58;15.20;91.00
40085;DHT22;25786;51.504;7.344;2023-08-06T04:41:24;15.20;91.20
40085;DHT22;25786;51.504;7.344;2023-08-06T04:43:49;15.20;91.30
40085;DHT22;25786;51.504;7.344;2023-08-06T04:46:14;15.30;91.40
40085;DHT22;25786;51.504;7.344;2023-08-06T04:48:40;15.30;91.40
40085;DHT22;25786;51.504;7.344;2023-08-06T04:51:05;15.40;91.40
40085;DHT22;25786;51.504;7.344;2023-08-06T04:53:31;15.40;91.40
40085;DHT22;25786;51.504;7.344;2023-08-06T04:55:56;15.50;90.90
40085;DHT22;25786;51.504;7.344;2023-08-06T04:58:22;15.50;90.80
40085;DHT22;25786;51.504;7.344;2023-08-06T05:00:47;15.60;90.60
40085;DHT22;25786;51.504;7.344;2023-08-06T05:03:13;15.60;90.80
40085;DHT22;25786;51.504;7.344;2023-08-06T05:05:39;15.70;90.70
40085;DHT22;25786;51.504;7.344;2023-08-06T05:08:05;15.80;90.60
40085;DHT22;25786;51.504;7.344;2023-08-06T05:10:30;15.80;90.50
40085;DHT22;25786;51.504;7.344;2023-08-06T05:12:56;15.80;90.60
40085;DHT22;25786;51.504;7.344;2023-08-06T05:15:22;15.90;90.50
40085;DHT22;25786;51.504;7.344;2023-08-06T05:17:47;15.90;90.40
40085;DHT22;25786;51.504;7.344;2023-08-06T05:20:12;15.90;90.20
40085;DHT22;25786;51.504;7.344;2023-08-06T05:22:38;15.90;90.30
40085;DHT22;25786;51.504;7.344;2023-08-06T05:25:03;16.00;90.40
40085;DHT22;25786;51.504;7.344;2023-08-06T05:27:32;16.00;90.30
40085;DHT22;25786;51.504;7.344;2023-08-06T05:29:57;16.00;90.10
40085;DHT22;25786;51.504;7.344;2023-08-06T05:32:23;16.00;89.70
40085;DHT22;25786;51.504;7.344;2023-08-06T05:34:48;16.00;89.70
40085;DHT22;25786;51.504;7.344;2023-08-06T05:37:14;16.10;89.90
40085;DHT22;25786;51.504;7.344;2023-08-06T05:39:39;16.10;89.90
40085;DHT22;25786;51.504;7.344;2023-08-06T05:42:05;16.10;90.00
40085;DHT22;25786;51.504;7.344;2023-08-06T05:44:30;16.20;89.60
40085;DHT22;25786;51.504;7.344;2023-08-06T05:46:56;16.20;89.10
40085;DHT22;25786;51.504;7.344;2023-08-06T05:49:21;16.20;89.60
40085;DHT22;25786;51.504;7.344;2023-08-06T05:51:52;16.30;89.70
40085;DHT22;25786;51.504;7.344;2023-08-06T05:54:29;16.30;90.00
40085;DHT22;25786;51.504;7.344;2023-08-06T05:56:55;16.40;90.10
40085;DHT22;25786;51.504;7.344;2023-08-06T05:59:20;16.40;88.90
40085;DHT22;25786;51.504;7.344;2023-08-06T06:01:46;16.30;89.20
40085;DHT22;25786;51.504;7.344;2023-08-06T06:04:11;16.30;89.40
40085;DHT22;25786;51.504;7.344;2023-08-06T06:06:36;16.30;89.00
40085;DHT22;25786;51.504;7.344;2023-08-06T06:09:02;16.30;89.50
40085;DHT22;25786;51.504;7.344;2023-08-06T06:11:28;16.40;89.70
40085;DHT22;25786;51.504;7.344;2023-08-06T06:13:53;16.30;89.70
40085;DHT22;25786;51.504;7.344;2023-08-06T06:16:18;16.40;89.60
40085;DHT22;25786;51.504;7.344;2023-08-06T06:18:44;16.50;89.70
40085;DHT22;25786;51.504;7.344;2023-08-06T06:21:10;16.60;89.50
40085;DHT22;25786;51.504;7.344;2023-08-06T06:23:35;16.60;89.20
40085;DHT22;25786;51.504;7.344;2023-08-06T06:26:01;16.80;89.10
40085;DHT22;25786;51.504;7.344;2023-08-06T06:28:26;16.90;88.90
40085;DHT22;25786;51.504;7.344;2023-08-06T06:30:51;17.00;87.40
40085;DHT22;25786;51.504;7.344;2023-08-06T06:33:17;17.10;87.30
40085;DHT22;25786;51.504;7.344;2023-08-06T06:35:42;17.10;88.10
40085;DHT22;25786;51.504;7.344;2023-08-06T06:38:08;17.20;87.00
40085;DHT22;25786;51.504;7.344;2023-08-06T06:40:33;17.30;87.30
40085;DHT22;25786;51.504;7.344;2023-08-06T06:42:59;17.30;87.60
40085;DHT22;25786;51.504;7.344;2023-08-06T06:45:24;17.30;88.00
40085;DHT22;25786;51.504;7.344;2023-08-06T06:47:50;17.30;87.80
40085;DHT22;25786;51.504;7.344;2023-08-06T06:50:15;17.30;86.50
40085;DHT22;25786;51.504;7.344;2023-08-06T06:52:41;17.20;86.30
40085;DHT22;25786;51.504;7.344;2023-08-06T06:55:06;17.30;86.40
40085;DHT22;25786;51.504;7.344;2023-08-06T06:57:32;17.30;86.70
40085;DHT22;25786;51.504;7.344;2023-08-06T06:59:57;17.40;87.10
40085;DHT22;25786;51.504;7.344;2023-08-06T07:02:23;17.50;87.10
40085;DHT22;25786;51.504;7.344;2023-08-06T07:04:49;17.60;86.00
40085;DHT22;25786;51.504;7.344;2023-08-06T07:07:14;17.60;86.60
40085;DHT22;25786;51.504;7.344;2023-08-06T07:09:40;17.60;86.00
40085;DHT22;25786;51.504;7.344;2023-08-06T07:12:05;17.70;86.10
40085;DHT22;25786;51.504;7.344;2023-08-06T07:14:31;17.80;86.00
40085;DHT22;25786;51.504;7.344;2023-08-06T07:16:56;17.90;85.80
40085;DHT22;25786;51.504;7.344;2023-08-06T07:19:22;18.00;86.00
40085;DHT22;25786;51.504;7.344;2023-08-06T07:21:48;18.20;84.70
40085;DHT22;25786;51.504;7.344;2023-08-06T07:24:13;18.20;83.70
40085;DHT22;25786;51.504;7.344;2023-08-06T07:26:39;18.30;82.50
40085;DHT22;25786;51.504;7.344;2023-08-06T07:29:04;18.30;83.40
40085;DHT22;25786;51.504;7.344;2023-08-06T07:31:30;18.30;83.50
40085;DHT22;25786;51.504;7.344;2023-08-06T07:33:55;18.30;82.60
40085;DHT22;25786;51.504;7.344;2023-08-06T07:36:21;18.30;81.60
40085;DHT22;25786;51.504;7.344;2023-08-06T07:38:46;18.40;82.00
40085;DHT22;25786;51.504;7.344;2023-08-06T07:41:14;18.50;81.90
40085;DHT22;25786;51.504;7.344;2023-08-06T07:43:39;18.50;82.50
40085;DHT22;25786;51.504;7.344;2023-08-06T07:46:04;18.50;82.70
40085;DHT22;25786;51.504;7.344;2023-08-06T07:48:30;18.50;81.90
40085;DHT22;25786;51.504;7.344;2023-08-06T07:50:56;18.60;80.60
40085;DHT22;25786;51.504;7.344;2023-08-06T07:53:22;18.60;80.70
40085;DHT22;25786;51.504;7.344;2023-08-06T07:55:51;18.70;79.60
40085;DHT22;25786;51.504;7.344;2023-08-06T07:58:17;18.60;79.20
40085;DHT22;25786;51.504;7.344;2023-08-06T08:00:43;18.60;79.90
40085;DHT22;25786;51.504;7.344;2023-08-06T08:03:11;18.80;80.00
40085;DHT22;25786;51.504;7.344;2023-08-06T08:05:37;18.70;79.40
40085;DHT22;25786;51.504;7.344;2023-08-06T08:08:03;18.80;79.50
40085;DHT22;25786;51.504;7.344;2023-08-06T08:10:28;18.80;80.30
40085;DHT22;25786;51.504;7.344;2023-08-06T08:12:54;18.80;79.40
40085;DHT22;25786;51.504;7.344;2023-08-06T08:15:19;18.90;78.70
40085;DHT22;25786;51.504;7.344;2023-08-06T08:17:45;18.80;79.50
40085;DHT22;25786;51.504;7.344;2023-08-06T08:20:12;18.60;79.50
40085;DHT22;25786;51.504;7.344;2023-08-06T08:22:38;18.60;79.60
40085;DHT22;25786;51.504;7.344;2023-08-06T08:25:04;18.50;80.10
40085;DHT22;25786;51.504;7.344;2023-08-06T08:27:29;18.50;81.90
40085;DHT22;25786;51.504;7.344;2023-08-06T08:29:57;18.50;81.90
40085;DHT22;25786;51.504;7.344;2023-08-06T08:32:23;18.40;81.80
40085;DHT22;25786;51.504;7.344;2023-08-06T08:34:49;18.30;83.50
40085;DHT22;25786;51.504;7.344;2023-08-06T08:37:14;18.30;82.80
40085;DHT22;25786;51.504;7.344;2023-08-06T08:39:40;18.30;82.40
40085;DHT22;25786;51.504;7.344;2023-08-06T08:42:05;18.20;82.20
40085;DHT22;25786;51.504;7.344;2023-08-06T08:44:32;18.20;83.10
40085;DHT22;25786;51.504;7.344;2023-08-06T08:46:59;18.30;82.00
40085;DHT22;25786;51.504;7.344;2023-08-06T08:49:25;18.10;82.80
40085;DHT22;25786;51.504;7.344;2023-08-06T08:51:51;18.00;83.10
40085;DHT22;25786;51.504;7.344;2023-08-06T08:54:18;18.10;82.50
40085;DHT22;25786;51.504;7.344;2023-08-06T08:56:43;18.00;83.50
40085;DHT22;25786;51.504;7.344;2023-08-06T08:59:09;18.00;83.40
40085;DHT22;25786;51.504;7.344;2023-08-06T09:01:35;18.00;82.50
40085;DHT22;25786;51.504;7.344;2023-08-06T09:04:01;18.00;83.70
40085;DHT22;25786;51.504;7.344;2023-08-06T09:06:27;18.00;82.70
40085;DHT22;25786;51.504;7.344;2023-08-06T09:09:15;18.20;81.30
40085;DHT22;25786;51.504;7.344;2023-08-06T09:11:39;18.20;82.00
40085;DHT22;25786;51.504;7.344;2023-08-06T09:14:07;18.30;83.20
40085;DHT22;25786;51.504;7.344;2023-08-06T09:16:36;18.40;82.10
40085;DHT22;25786;51.504;7.344;2023-08-06T09:19:11;18.50;81.50
40085;DHT22;25786;51.504;7.344;2023-08-06T09:21:38;18.50;82.10
40085;DHT22;25786;51.504;7.344;2023-08-06T09:24:13;18.60;81.30
40085;DHT22;25786;51.504;7.344;2023-08-06T09:26:43;18.80;80.70
40085;DHT22;25786;51.504;7.344;2023-08-06T09:29:09;18.90;81.10
40085;DHT22;25786;51.504;7.344;2023-08-06T09:31:46;19.00;79.90
40085;DHT22;25786;51.504;7.344;2023-08-06T09:34:15;19.00;79.20
40085;DHT22;25786;51.504;7.344;2023-08-06T09:36:47;19.10;78.60
40085;DHT22;25786;51.504;7.344;2023-08-06T09:39:16;19.30;79.40
40085;DHT22;25786;51.504;7.344;2023-08-06T09:41:42;19.20;78.90
40085;DHT22;25786;51.504;7.344;2023-08-06T09:44:26;19.20;78.00
40085;DHT22;25786;51.504;7.344;2023-08-06T09:46:56;19.10;77.70
40085;DHT22;25786;51.504;7.344;2023-08-06T09:49:25;19.00;78.30
40085;DHT22;25786;51.504;7.344;2023-08-06T09:51:50;18.80;78.00
40085;DHT22;25786;51.504;7.344;2023-08-06T09:54:17;18.50;80.00
40085;DHT22;25786;51.504;7.344;2023-08-06T09:56:46;18.60;81.40
40085;DHT22;25786;51.504;7.344;2023-08-06T09:59:11;18.60;81.60
40085;DHT22;25786;51.504;7.344;2023-08-06T10:01:37;18.70;80.60
40085;DHT22;25786;51.504;7.344;2023-08-06T10:04:03;18.80;81.60
40085;DHT22;25786;51.504;7.344;2023-08-06T10:06:31;18.80;80.50
40085;DHT22;25786;51.504;7.344;2023-08-06T10:08:57;19.10;78.20
40085;DHT22;25786;51.504;7.344;2023-08-06T10:11:23;19.10;77.10
40085;DHT22;25786;51.504;7.344;2023-08-06T10:14:13;19.00;77.50
40085;DHT22;25786;51.504;7.344;2023-08-06T10:16:36;19.10;77.50
40085;DHT22;25786;51.504;7.344;2023-08-06T10:19:03;19.20;77.90
40085;DHT22;25786;51.504;7.344;2023-08-06T10:21:30;19.50;75.70
40085;DHT22;25786;51.504;7.344;2023-08-06T10:23:56;19.50;75.50
40085;DHT22;25786;51.504;7.344;2023-08-06T10:26:28;19.60;75.10
40085;DHT22;25786;51.504;7.344;2023-08-06T10:28:54;19.50;76.10
40085;DHT22;25786;51.504;7.344;2023-08-06T10:31:19;19.50;75.80
40085;DHT22;25786;51.504;7.344;2023-08-06T10:33:46;19.70;74.60
40085;DHT22;25786;51.504;7.344;2023-08-06T10:36:12;19.90;73.70
40085;DHT22;25786;51.504;7.344;2023-08-06T10:38:44;20.00;72.30
40085;DHT22;25786;51.504;7.344;2023-08-06T10:41:14;19.90;73.80
40085;DHT22;25786;51.504;7.344;2023-08-06T10:43:40;20.00;73.00
40085;DHT22;25786;51.504;7.344;2023-08-06T10:46:10;20.20;71.30
40085;DHT22;25786;51.504;7.344;2023-08-06T10:48:37;20.20;72.40
40085;DHT22;25786;51.504;7.344;2023-08-06T10:51:03;20.20;69.20
40085;DHT22;25786;51.504;7.344;2023-08-06T10:53:29;20.30;71.00
40085;DHT22;25786;51.504;7.344;2023-08-06T10:55:55;20.30;71.10
40085;DHT22;25786;51.504;7.344;2023-08-06T10:58:20;20.20;71.80
40085;DHT22;25786;51.504;7.344;2023-08-06T11:00:46;20.20;71.90
40085;DHT22;25786;51.504;7.344;2023-08-06T11:03:11;20.40;70.30
40085;DHT22;25786;51.504;7.344;2023-08-06T11:05:36;20.40;70.50
40085;DHT22;25786;51.504;7.344;2023-08-06T11:08:02;20.40;71.50
40085;DHT22;25786;51.504;7.344;2023-08-06T11:10:27;20.40;72.70
40085;DHT22;25786;51.504;7.344;2023-08-06T11:12:53;20.70;69.80
40085;DHT22;25786;51.504;7.344;2023-08-06T11:15:20;20.70;69.80
40085;DHT22;25786;51.504;7.344;2023-08-06T11:17:45;20.80;68.30
40085;DHT22;25786;51.504;7.344;2023-08-06T11:20:11;20.70;68.90
40085;DHT22;25786;51.504;7.344;2023-08-06T11:22:36;20.80;68.60
40085;DHT22;25786;51.504;7.344;2023-08-06T11:25:02;20.80;68.80
40085;DHT22;25786;51.504;7.344;2023-08-06T11:27:28;20.80;70.80
40085;DHT22;25786;51.504;7.344;2023-08-06T11:29:54;20.90;67.20
40085;DHT22;25786;51.504;7.344;2023-08-06T11:32:19;21.00;66.80
40085;DHT22;25786;51.504;7.344;2023-08-06T11:34:45;20.90;66.80
40085;DHT22;25786;51.504;7.344;2023-08-06T11:37:10;20.90;64.10
40085;DHT22;25786;51.504;7.344;2023-08-06T11:39:37;20.90;66.40
40085;DHT22;25786;51.504;7.344;2023-08-06T11:42:03;21.00;62.40
40085;DHT22;25786;51.504;7.344;2023-08-06T11:44:30;21.10;64.00
40085;DHT22;25786;51.504;7.344;2023-08-06T11:46:59;21.10;65.90
40085;DHT22;25786;51.504;7.344;2023-08-06T11:52:21;21.30;64.50
40085;DHT22;25786;51.504;7.344;2023-08-06T11:57:29;21.40;65.10
40085;DHT22;25786;51.504;7.344;2023-08-06T11:59:54;21.50;63.80
40085;DHT22;25786;51.504;7.344;2023-08-06T12:02:20;21.50;65.60
40085;DHT22;25786;51.504;7.344;2023-08-06T12:04:58;21.20;67.90
40085;DHT22;25786;51.504;7.344;2023-08-06T12:07:28;21.00;69.20
40085;DHT22;25786;51.504;7.344;2023-08-06T12:09:53;20.80;69.70
40085;DHT22;25786;51.504;7.344;2023-08-06T12:12:19;20.50;70.20
40085;DHT22;25786;51.504;7.344;2023-08-06T12:14:44;20.30;71.10
40085;DHT22;25786;51.504;7.344;2023-08-06T12:17:10;20.20;72.30
40085;DHT22;25786;51.504;7.344;2023-08-06T12:19:36;20.10;73.00
40085;DHT22;25786;51.504;7.344;2023-08-06T12:22:01;20.10;73.00
40085;DHT22;25786;51.504;7.344;2023-08-06T12:24:28;19.80;72.80
40085;DHT22;25786;51.504;7.344;2023-08-06T12:27:00;19.60;74.30
40085;DHT22;25786;51.504;7.344;2023-08-06T12:29:27;19.30;77.40
40085;DHT22;25786;51.504;7.344;2023-08-06T12:31:53;19.10;78.80
40085;DHT22;25786;51.504;7.344;2023-08-06T12:34:19;19.00;80.20
40085;DHT22;25786;51.504;7.344;2023-08-06T12:36:44;18.80;82.30
40085;DHT22;25786;51.504;7.344;2023-08-06T12:39:13;18.60;83.00
40085;DHT22;25786;51.504;7.344;2023-08-06T12:41:41;18.20;83.30
40085;DHT22;25786;51.504;7.344;2023-08-06T12:44:06;18.10;84.20
40085;DHT22;25786;51.504;7.344;2023-08-06T12:46:31;17.80;84.60
40085;DHT22;25786;51.504;7.344;2023-08-06T12:48:57;17.60;85.10
40085;DHT22;25786;51.504;7.344;2023-08-06T12:51:23;17.50;85.80
40085;DHT22;25786;51.504;7.344;2023-08-06T12:53:48;17.30;86.50
40085;DHT22;25786;51.504;7.344;2023-08-06T12:56:14;17.20;86.30
40085;DHT22;25786;51.504;7.344;2023-08-06T12:58:42;17.10;86.00
40085;DHT22;25786;51.504;7.344;2023-08-06T13:01:08;17.10;87.50
40085;DHT22;25786;51.504;7.344;2023-08-06T13:03:33;17.10;87.60
40085;DHT22;25786;51.504;7.344;2023-08-06T13:05:59;17.10;87.40
40085;DHT22;25786;51.504;7.344;2023-08-06T13:08:24;17.10;87.20
40085;DHT22;25786;51.504;7.344;2023-08-06T13:10:49;17.00;86.80
40085;DHT22;25786;51.504;7.344;2023-08-06T13:13:15;16.90;86.10
40085;DHT22;25786;51.504;7.344;2023-08-06T13:15:43;16.80;86.40
40085;DHT22;25786;51.504;7.344;2023-08-06T13:18:09;16.80;87.10
40085;DHT22;25786;51.504;7.344;2023-08-06T13:20:38;16.70;86.50
40085;DHT22;25786;51.504;7.344;2023-08-06T13:23:03;16.60;85.90
40085;DHT22;25786;51.504;7.344;2023-08-06T13:25:28;16.50;86.00
40085;DHT22;25786;51.504;7.344;2023-08-06T13:27:54;16.50;86.20
40085;DHT22;25786;51.504;7.344;2023-08-06T13:30:20;16.40;85.10
40085;DHT22;25786;51.504;7.344;2023-08-06T13:32:45;16.30;85.20
40085;DHT22;25786;51.504;7.344;2023-08-06T13:35:11;16.20;86.20
40085;DHT22;25786;51.504;7.344;2023-08-06T13:37:37;16.20;85.80
40085;DHT22;25786;51.504;7.344;2023-08-06T13:40:02;16.10;86.40
40085;DHT22;25786;51.504;7.344;2023-08-06T13:42:28;16.10;87.30
40085;DHT22;25786;51.504;7.344;2023-08-06T13:44:54;16.10;87.70
40085;DHT22;25786;51.504;7.344;2023-08-06T13:47:24;16.10;87.40
40085;DHT22;25786;51.504;7.344;2023-08-06T13:49:50;16.10;87.30
40085;DHT22;25786;51.504;7.344;2023-08-06T13:52:15;16.10;88.10
40085;DHT22;25786;51.504;7.344;2023-08-06T13:54:41;16.20;87.30
40085;DHT22;25786;51.504;7.344;2023-08-06T13:57:06;16.10;87.50
40085;DHT22;25786;51.504;7.344;2023-08-06T13:59:32;16.10;87.70
40085;DHT22;25786;51.504;7.344;2023-08-06T14:01:57;16.20;87.50
40085;DHT22;25786;51.504;7.344;2023-08-06T14:04:25;16.00;88.20
40085;DHT22;25786;51.504;7.344;2023-08-06T14:06:50;16.00;88.60
40085;DHT22;25786;51.504;7.344;2023-08-06T14:09:16;16.00;88.20
40085;DHT22;25786;51.504;7.344;2023-08-06T14:11:44;16.00;88.40
40085;DHT22;25786;51.504;7.344;2023-08-06T14:14:10;16.10;88.70
40085;DHT22;25786;51.504;7.344;2023-08-06T14:16:36;16.00;88.90
40085;DHT22;25786;51.504;7.344;2023-08-06T14:19:01;16.00;89.10
40085;DHT22;25786;51.504;7.344;2023-08-06T14:21:27;16.10;89.50
40085;DHT22;25786;51.504;7.344;2023-08-06T14:23:52;16.00;89.50
40085;DHT22;25786;51.504;7.344;2023-08-06T14:26:18;16.10;89.50
40085;DHT22;25786;51.504;7.344;2023-08-06T14:28:43;16.00;89.00
40085;DHT22;25786;51.504;7.344;2023-08-06T14:31:09;16.00;89.60
40085;DHT22;25786;51.504;7.344;2023-08-06T14:33:34;16.00;89.60
40085;DHT22;25786;51.504;7.344;2023-08-06T14:36:00;16.00;90.00
40085;DHT22;25786;51.504;7.344;2023-08-06T14:38:25;16.10;90.00
40085;DHT22;25786;51.504;7.344;2023-08-06T14:40:51;16.10;89.20
40085;DHT22;25786;51.504;7.344;2023-08-06T14:43:17;16.10;89.00
40085;DHT22;25786;51.504;7.344;2023-08-06T14:45:42;16.00;88.80
40085;DHT22;25786;51.504;7.344;2023-08-06T14:48:08;16.00;89.50
40085;DHT22;25786;51.504;7.344;2023-08-06T14:50:33;16.10;89.00
40085;DHT22;25786;51.504;7.344;2023-08-06T14:52:59;15.90;89.20
40085;DHT22;25786;51.504;7.344;2023-08-06T14:55:28;16.00;89.50
40085;DHT22;25786;51.504;7.344;2023-08-06T14:57:53;15.90;89.70
40085;DHT22;25786;51.504;7.344;2023-08-06T15:00:19;16.00;90.00
40085;DHT22;25786;51.504;7.344;2023-08-06T15:02:45;16.00;90.10
40085;DHT22;25786;51.504;7.344;2023-08-06T15:05:11;16.00;90.30
40085;DHT22;25786;51.504;7.344;2023-08-06T15:07:36;16.00;90.20
40085;DHT22;25786;51.504;7.344;2023-08-06T15:10:03;16.00;90.50
40085;DHT22;25786;51.504;7.344;2023-08-06T15:12:29;16.00;90.80
40085;DHT22;25786;51.504;7.344;2023-08-06T15:14:54;16.10;90.00
40085;DHT22;25786;51.504;7.344;2023-08-06T15:17:22;16.10;89.40
40085;DHT22;25786;51.504;7.344;2023-08-06T15:19:48;16.10;89.80
40085;DHT22;25786;51.504;7.344;2023-08-06T15:22:13;16.20;89.90
40085;DHT22;25786;51.504;7.344;2023-08-06T15:24:39;16.30;88.90
40085;DHT22;25786;51.504;7.344;2023-08-06T15:27:10;16.30;88.60
40085;DHT22;25786;51.504;7.344;2023-08-06T15:29:36;16.30;87.60
40085;DHT22;25786;51.504;7.344;2023-08-06T15:32:02;16.20;88.40
40085;DHT22;25786;51.504;7.344;2023-08-06T15:34:27;16.20;87.80
40085;DHT22;25786;51.504;7.344;2023-08-06T15:36:53;16.20;88.00
40085;DHT22;25786;51.504;7.344;2023-08-06T15:39:20;16.30;88.40
40085;DHT22;25786;51.504;7.344;2023-08-06T15:41:45;16.20;86.80
40085;DHT22;25786;51.504;7.344;2023-08-06T15:44:11;16.20;87.20
40085;DHT22;25786;51.504;7.344;2023-08-06T15:46:36;16.20;87.30
40085;DHT22;25786;51.504;7.344;2023-08-06T15:49:02;16.00;87.60
40085;DHT22;25786;51.504;7.344;2023-08-06T15:51:27;16.00;88.50